Time;durP1;ratioP1;P1;durP2;ratioP2;P2;SDS_P1;SDS_P2;PMS_P1;PMS_P2;Temp;Humidity;BMP_temperature;BMP_pressure;BME280_temperature;BME280_humidity;BME280_pressure;Samples;Min_cycle;Max_cycle;Signal;HPM_P1;HPM_P2
2021/03/29 00:00:44;;;;;;;17.10;6.25;;;;;;;;;;5081019;28;20849;-76
2021/03/29 00:03:10;;;;;;;14.88;6.10;;;;;;;;;;5082357;28;20391;-74
2021/03/29 00:05:36;;;;;;;18.92;6.53;;;;;;;;;;5061558;28;20486;-74
2021/03/29 00:08:05;;;;;;;14.48;6.72;;;;;;;;;;5079677;28;20418;-74
2021/03/29 00:10:31;;;;;;;15.48;6.80;;;;;;;;;;5080388;28;20388;-74
2021/03/29 00:12:58;;;;;;;16.75;7.03;;;;;;;;;;5079503;28;20422;-75
2021/03/29 00:15:27;;;;;;;17.23;6.95;;;;;;;;;;5078425;28;20396;-75
2021/03/29 00:17:53;;;;;;;17.30;7.05;;;;;;;;;;5080764;28;20409;-76
2021/03/29 00:20:29;;;;;;;21.33;7.45;;;;;;;;;;5077703;28;20860;-75
2021/03/29 00:22:57;;;;;;;17.23;7.22;;;;;;;;;;5080699;28;20410;-74
2021/03/29 00:25:23;;;;;;;16.73;7.28;;;;;;;;;;5081869;28;20392;-75
2021/03/29 00:27:50;;;;;;;16.02;6.95;;;;;;;;;;5078408;28;20406;-74
2021/03/29 00:30:18;;;;;;;13.90;6.90;;;;;;;;;;5081099;28;20909;-74
2021/03/29 00:32:45;;;;;;;15.23;7.32;;;;;;;;;;5080296;28;20376;-75
2021/03/29 00:35:15;;;;;;;14.70;6.93;;;;;;;;;;5081062;28;20793;-74
2021/03/29 00:37:42;;;;;;;16.25;7.38;;;;;;;;;;5080105;28;20402;-75
2021/03/29 00:40:11;;;;;;;17.67;7.63;;;;;;;;;;5082647;28;20403;-75
2021/03/29 00:42:38;;;;;;;17.60;7.33;;;;;;;;;;5080587;28;20519;-74
2021/03/29 00:45:05;;;;;;;20.33;7.53;;;;;;;;;;5079583;28;20763;-75
2021/03/29 00:47:31;;;;;;;15.85;7.68;;;;;;;;;;5083022;28;20426;-74
2021/03/29 00:49:58;;;;;;;17.27;7.93;;;;;;;;;;5079624;28;20484;-75
2021/03/29 00:52:25;;;;;;;16.27;7.22;;;;;;;;;;5062506;28;20985;-74
2021/03/29 00:54:51;;;;;;;14.30;7.35;;;;;;;;;;5080672;28;20849;-74
2021/03/29 00:57:18;;;;;;;17.30;7.80;;;;;;;;;;5079881;28;20387;-74
2021/03/29 00:59:45;;;;;;;14.50;7.68;;;;;;;;;;5078524;28;20400;-74
2021/03/29 01:02:11;;;;;;;16.80;8.20;;;;;;;;;;5062220;28;20406;-75
2021/03/29 01:04:37;;;;;;;13.67;7.27;;;;;;;;;;5076970;28;20386;-75
2021/03/29 01:07:03;;;;;;;15.95;7.40;;;;;;;;;;5063435;28;20416;-75
2021/03/29 01:09:30;;;;;;;16.67;8.20;;;;;;;;;;5082498;28;20485;-75
2021/03/29 01:11:57;;;;;;;18.85;7.80;;;;;;;;;;5079490;28;20400;-74
2021/03/29 01:14:28;;;;;;;17.38;8.07;;;;;;;;;;5077635;28;20487;-74
2021/03/29 01:17:14;;;;;;;19.50;8.38;;;;;;;;;;5080505;28;20452;-76
2021/03/29 01:19:46;;;;;;;17.30;8.73;;;;;;;;;;5081671;28;20406;-74
2021/03/29 01:22:23;;;;;;;16.05;8.57;;;;;;;;;;5076832;28;20485;-74
2021/03/29 01:24:59;;;;;;;15.35;8.75;;;;;;;;;;5079989;28;20420;-75
2021/03/29 01:27:29;;;;;;;19.25;9.05;;;;;;;;;;5080387;28;20406;-75
2021/03/29 01:29:56;;;;;;;20.30;9.32;;;;;;;;;;5078866;28;20447;-74
2021/03/29 01:32:22;;;;;;;18.75;9.07;;;;;;;;;;5079756;28;20392;-74
2021/03/29 01:34:49;;;;;;;17.13;9.18;;;;;;;;;;5080070;28;20881;-74
2021/03/29 01:37:15;;;;;;;16.60;9.15;;;;;;;;;;5079041;28;20484;-75
2021/03/29 01:39:42;;;;;;;20.10;9.95;;;;;;;;;;5077639;28;20892;-75
2021/03/29 01:42:08;;;;;;;20.67;10.13;;;;;;;;;;5078947;28;20406;-74
2021/03/29 01:44:34;;;;;;;19.52;9.30;;;;;;;;;;5079508;28;20393;-74
2021/03/29 01:47:01;;;;;;;21.65;9.93;;;;;;;;;;5079058;28;20467;-74
2021/03/29 01:49:27;;;;;;;17.20;9.87;;;;;;;;;;5078666;28;20778;-75
2021/03/29 01:51:54;;;;;;;18.17;9.48;;;;;;;;;;5078759;28;20368;-75
2021/03/29 01:54:20;;;;;;;19.57;9.53;;;;;;;;;;5075411;28;20430;-75
2021/03/29 01:56:46;;;;;;;20.05;9.73;;;;;;;;;;5079318;28;20406;-74
2021/03/29 01:59:12;;;;;;;16.33;9.07;;;;;;;;;;5079099;28;20423;-73
2021/03/29 02:01:38;;;;;;;19.02;9.07;;;;;;;;;;5083159;28;20412;-74
2021/03/29 02:04:05;;;;;;;13.65;8.88;;;;;;;;;;5079517;28;20362;-76
2021/03/29 02:06:31;;;;;;;17.75;8.65;;;;;;;;;;5061831;28;20395;-74
2021/03/29 02:08:58;;;;;;;16.30;8.90;;;;;;;;;;5080305;28;20417;-76
2021/03/29 02:11:24;;;;;;;14.85;8.93;;;;;;;;;;5081108;28;20405;-75
2021/03/29 02:13:53;;;;;;;18.38;8.95;;;;;;;;;;5078205;28;20403;-74
2021/03/29 02:16:19;;;;;;;22.38;8.80;;;;;;;;;;5065561;28;20480;-74
2021/03/29 02:18:47;;;;;;;19.10;8.88;;;;;;;;;;5076806;28;20423;-74
2021/03/29 02:21:27;;;;;;;20.58;9.10;;;;;;;;;;5078149;28;20493;-75
2021/03/29 02:23:57;;;;;;;16.25;8.32;;;;;;;;;;5066953;28;20875;-74
2021/03/29 02:26:25;;;;;;;19.58;8.43;;;;;;;;;;5077666;28;20396;-74
2021/03/29 02:28:51;;;;;;;20.50;8.60;;;;;;;;;;5078892;28;20489;-74
2021/03/29 02:31:18;;;;;;;17.08;8.77;;;;;;;;;;5059760;28;20418;-75
2021/03/29 02:33:45;;;;;;;17.00;8.50;;;;;;;;;;5078265;28;20420;-74
2021/03/29 02:36:11;;;;;;;16.17;8.43;;;;;;;;;;5077136;28;20406;-75
2021/03/29 02:38:37;;;;;;;17.63;8.20;;;;;;;;;;5078016;28;20406;-74
2021/03/29 02:41:04;;;;;;;17.65;8.02;;;;;;;;;;5078102;28;20843;-74
2021/03/29 02:43:31;;;;;;;15.20;7.57;;;;;;;;;;5060758;28;20868;-74
2021/03/29 02:45:59;;;;;;;17.20;7.88;;;;;;;;;;5076395;28;20840;-74
2021/03/29 02:48:26;;;;;;;16.20;7.20;;;;;;;;;;5075729;28;20482;-75
2021/03/29 02:50:53;;;;;;;17.73;7.68;;;;;;;;;;5076771;28;20387;-74
2021/03/29 02:53:27;;;;;;;17.67;7.35;;;;;;;;;;5079586;28;20385;-75
2021/03/29 02:55:53;;;;;;;14.57;7.25;;;;;;;;;;5077172;28;20497;-75
2021/03/29 02:58:22;;;;;;;15.43;7.10;;;;;;;;;;5076885;28;20864;-74
2021/03/29 03:00:48;;;;;;;17.30;7.93;;;;;;;;;;5076742;28;20450;-74
2021/03/29 03:03:14;;;;;;;16.98;7.53;;;;;;;;;;5076757;28;20391;-75
2021/03/29 03:05:41;;;;;;;16.80;7.47;;;;;;;;;;5078863;28;20402;-75
2021/03/29 03:08:07;;;;;;;15.77;6.75;;;;;;;;;;5084780;28;20417;-75
2021/03/29 03:10:34;;;;;;;18.60;7.45;;;;;;;;;;5076784;28;20387;-75
2021/03/29 03:13:02;;;;;;;15.07;7.18;;;;;;;;;;5078640;28;21012;-74
2021/03/29 03:15:28;;;;;;;15.85;7.18;;;;;;;;;;5080253;28;20541;-75
2021/03/29 03:17:55;;;;;;;18.70;7.10;;;;;;;;;;5077218;28;20390;-74
2021/03/29 03:20:21;;;;;;;16.90;6.90;;;;;;;;;;5057447;28;20541;-75
2021/03/29 03:23:01;;;;;;;14.70;7.00;;;;;;;;;;5077997;28;20378;-74
2021/03/29 03:25:31;;;;;;;18.17;7.53;;;;;;;;;;5079097;28;20397;-76
2021/03/29 03:27:59;;;;;;;15.43;7.00;;;;;;;;;;5075969;28;20435;-74
2021/03/29 03:30:27;;;;;;;18.75;7.22;;;;;;;;;;5078208;28;20793;-74
2021/03/29 03:32:53;;;;;;;14.32;6.35;;;;;;;;;;5077723;28;20504;-74
2021/03/29 03:35:20;;;;;;;15.00;7.13;;;;;;;;;;5083670;28;20405;-75
2021/03/29 03:37:54;;;;;;;19.35;7.10;;;;;;;;;;5079316;28;20402;-74
2021/03/29 03:40:21;;;;;;;17.30;6.88;;;;;;;;;;5079863;28;20410;-75
2021/03/29 03:42:48;;;;;;;18.30;7.30;;;;;;;;;;5066371;28;20783;-74
2021/03/29 03:45:15;;;;;;;18.65;6.93;;;;;;;;;;5084377;28;20380;-74
2021/03/29 03:47:41;;;;;;;17.10;6.88;;;;;;;;;;5063154;28;20493;-74
2021/03/29 03:50:09;;;;;;;20.08;6.65;;;;;;;;;;5067631;28;20799;-75
2021/03/29 03:52:36;;;;;;;17.17;6.93;;;;;;;;;;5080017;28;20403;-75
2021/03/29 03:55:02;;;;;;;17.33;6.72;;;;;;;;;;5081323;28;20471;-74
2021/03/29 03:57:28;;;;;;;14.40;6.88;;;;;;;;;;5082629;28;20394;-74
2021/03/29 03:59:55;;;;;;;16.20;6.97;;;;;;;;;;5082413;28;20511;-75
2021/03/29 04:02:21;;;;;;;15.15;6.93;;;;;;;;;;5080606;28;20424;-75
2021/03/29 04:04:47;;;;;;;17.20;6.75;;;;;;;;;;5081135;28;20400;-74
2021/03/29 04:07:12;;;;;;;16.35;6.82;;;;;;;;;;5081085;28;20872;-74
2021/03/29 04:12:08;;;;;;;15.60;6.65;;;;;;;;;;5078006;28;20411;-74
2021/03/29 04:14:34;;;;;;;14.37;6.67;;;;;;;;;;5064934;28;21072;-74
2021/03/29 04:17:00;;;;;;;16.77;6.47;;;;;;;;;;5080757;28;20389;-75
2021/03/29 04:19:26;;;;;;;16.00;6.50;;;;;;;;;;5061814;28;20392;-74
2021/03/29 04:21:52;;;;;;;16.38;6.28;;;;;;;;;;5080257;28;20457;-73
2021/03/29 04:24:18;;;;;;;15.90;6.18;;;;;;;;;;5081241;28;20423;-74
2021/03/29 04:26:45;;;;;;;14.05;5.95;;;;;;;;;;5080469;28;20390;-74
2021/03/29 04:29:10;;;;;;;17.60;7.18;;;;;;;;;;5080851;28;20425;-74
2021/03/29 04:31:37;;;;;;;15.03;6.30;;;;;;;;;;5061547;28;20468;-74
2021/03/29 04:34:03;;;;;;;16.65;6.35;;;;;;;;;;5080075;28;20404;-74
2021/03/29 04:36:29;;;;;;;15.57;6.68;;;;;;;;;;5080882;28;20395;-74
2021/03/29 04:38:54;;;;;;;14.93;6.40;;;;;;;;;;5061555;28;20419;-73
2021/03/29 04:41:20;;;;;;;18.88;6.68;;;;;;;;;;5079186;28;20395;-74
2021/03/29 04:43:46;;;;;;;18.33;6.57;;;;;;;;;;5060620;28;20388;-74
2021/03/29 04:46:12;;;;;;;14.70;6.30;;;;;;;;;;5062155;28;20392;-74
2021/03/29 04:48:39;;;;;;;18.70;6.97;;;;;;;;;;5082945;28;20911;-74
2021/03/29 04:51:05;;;;;;;17.02;6.35;;;;;;;;;;5079166;28;20851;-74
2021/03/29 04:53:31;;;;;;;19.80;7.03;;;;;;;;;;5079217;28;20389;-76
2021/03/29 04:55:57;;;;;;;15.33;6.60;;;;;;;;;;5063278;28;20486;-74
2021/03/29 04:58:23;;;;;;;17.80;6.60;;;;;;;;;;5079567;28;20430;-74
2021/03/29 05:00:49;;;;;;;15.13;5.88;;;;;;;;;;5080334;28;20397;-74
2021/03/29 05:03:15;;;;;;;19.02;6.55;;;;;;;;;;5080365;28;20398;-74
2021/03/29 05:05:41;;;;;;;15.77;6.03;;;;;;;;;;5077548;28;20400;-74
2021/03/29 05:08:07;;;;;;;15.60;6.75;;;;;;;;;;5083060;28;20462;-75
2021/03/29 05:10:35;;;;;;;16.92;6.47;;;;;;;;;;5061546;28;20389;-74
2021/03/29 05:13:01;;;;;;;15.20;6.13;;;;;;;;;;5078142;28;20414;-74
2021/03/29 05:15:27;;;;;;;14.33;6.57;;;;;;;;;;5080882;28;20472;-74
2021/03/29 05:17:53;;;;;;;15.98;6.50;;;;;;;;;;5078274;28;20392;-75
2021/03/29 05:20:19;;;;;;;16.90;6.57;;;;;;;;;;5079429;28;20400;-74
2021/03/29 05:22:45;;;;;;;17.80;6.20;;;;;;;;;;5077710;28;20413;-74
2021/03/29 05:25:11;;;;;;;15.73;6.47;;;;;;;;;;5079609;28;20382;-74
2021/03/29 05:27:37;;;;;;;16.92;6.10;;;;;;;;;;5077549;28;20396;-73
2021/03/29 05:30:04;;;;;;;15.68;6.60;;;;;;;;;;5079749;28;20427;-74
2021/03/29 05:32:30;;;;;;;15.25;6.18;;;;;;;;;;5078560;28;20453;-74
2021/03/29 05:34:56;;;;;;;16.65;6.28;;;;;;;;;;5080655;28;20383;-74
2021/03/29 05:37:24;;;;;;;14.77;6.50;;;;;;;;;;5059684;28;20992;-75
2021/03/29 05:39:50;;;;;;;17.00;6.38;;;;;;;;;;5075945;28;20417;-74
2021/03/29 05:42:17;;;;;;;15.55;6.30;;;;;;;;;;5076901;28;20445;-74
2021/03/29 05:44:43;;;;;;;15.88;6.60;;;;;;;;;;5076870;28;20450;-74
2021/03/29 05:47:09;;;;;;;15.00;6.53;;;;;;;;;;5064223;28;20391;-74
2021/03/29 05:49:35;;;;;;;16.48;6.00;;;;;;;;;;5061889;28;20437;-74
2021/03/29 05:52:02;;;;;;;18.35;6.32;;;;;;;;;;5079083;28;20378;-74
2021/03/29 05:54:28;;;;;;;14.88;5.97;;;;;;;;;;5060886;28;20406;-73
2021/03/29 05:56:55;;;;;;;16.42;6.00;;;;;;;;;;5077827;28;20381;-74
2021/03/29 05:59:24;;;;;;;14.65;5.90;;;;;;;;;;5078381;28;20395;-74
2021/03/29 06:01:52;;;;;;;17.67;6.63;;;;;;;;;;5079101;28;20408;-74
2021/03/29 06:04:39;;;;;;;13.88;6.20;;;;;;;;;;5077498;28;20486;-74
2021/03/29 06:07:12;;;;;;;16.98;6.53;;;;;;;;;;5057433;28;20426;-74
2021/03/29 06:09:38;;;;;;;15.00;6.15;;;;;;;;;;5077508;28;20426;-74
2021/03/29 06:12:04;;;;;;;15.13;6.35;;;;;;;;;;5085174;28;20505;-75
2021/03/29 06:14:31;;;;;;;14.83;5.47;;;;;;;;;;5081731;28;20382;-74
2021/03/29 06:16:59;;;;;;;15.93;6.05;;;;;;;;;;5086840;28;20436;-74
2021/03/29 06:19:35;;;;;;;14.25;5.80;;;;;;;;;;5087933;28;20422;-74
2021/03/29 06:22:11;;;;;;;13.90;6.00;;;;;;;;;;5083944;28;20394;-74
2021/03/29 06:24:57;;;;;;;13.90;5.93;;;;;;;;;;5081602;28;20413;-74
2021/03/29 06:27:25;;;;;;;18.55;6.22;;;;;;;;;;5085964;28;20473;-75
2021/03/29 06:29:51;;;;;;;14.73;6.00;;;;;;;;;;5068542;28;20421;-74
2021/03/29 06:32:21;;;;;;;16.10;6.20;;;;;;;;;;5085641;28;20400;-74
2021/03/29 06:34:47;;;;;;;13.55;5.90;;;;;;;;;;5087721;28;20386;-74
2021/03/29 06:37:13;;;;;;;14.10;5.22;;;;;;;;;;5087932;28;20426;-74
2021/03/29 06:39:40;;;;;;;16.13;5.55;;;;;;;;;;5086055;28;20397;-73
2021/03/29 06:42:07;;;;;;;14.48;5.78;;;;;;;;;;5076778;28;20423;-74
2021/03/29 06:44:34;;;;;;;14.68;6.07;;;;;;;;;;5066556;28;20401;-74
2021/03/29 06:47:11;;;;;;;15.77;5.17;;;;;;;;;;5088170;28;20502;-74
2021/03/29 06:49:44;;;;;;;16.75;5.97;;;;;;;;;;5084700;28;20471;-74
2021/03/29 06:52:21;;;;;;;16.50;5.95;;;;;;;;;;5069051;28;20413;-74
2021/03/29 06:54:47;;;;;;;16.85;5.25;;;;;;;;;;5087559;28;20436;-75
2021/03/29 06:57:13;;;;;;;17.50;5.53;;;;;;;;;;5087071;28;20779;-75
2021/03/29 06:59:39;;;;;;;16.53;5.60;;;;;;;;;;5060317;28;20712;-75
2021/03/29 07:02:08;;;;;;;17.42;6.07;;;;;;;;;;5074486;28;20459;-75
2021/03/29 07:04:36;;;;;;;15.55;5.55;;;;;;;;;;5065588;28;20406;-74
2021/03/29 07:07:03;;;;;;;15.90;5.67;;;;;;;;;;5081567;28;20390;-73
2021/03/29 07:09:33;;;;;;;16.15;5.38;;;;;;;;;;5076545;28;20520;-74
2021/03/29 07:12:00;;;;;;;15.15;5.63;;;;;;;;;;5091965;28;20370;-74
2021/03/29 07:14:27;;;;;;;16.75;5.82;;;;;;;;;;5091402;28;20401;-74
2021/03/29 07:16:55;;;;;;;14.43;5.53;;;;;;;;;;5091937;28;20374;-74
2021/03/29 07:19:22;;;;;;;11.88;5.38;;;;;;;;;;5091166;28;20378;-75
2021/03/29 07:21:48;;;;;;;14.00;5.80;;;;;;;;;;5082941;28;20383;-73
2021/03/29 07:24:14;;;;;;;15.05;5.68;;;;;;;;;;5083902;28;20707;-74
2021/03/29 07:26:42;;;;;;;13.82;5.50;;;;;;;;;;5086552;28;20394;-74
2021/03/29 07:29:16;;;;;;;14.27;5.50;;;;;;;;;;5080887;28;20435;-73
2021/03/29 07:31:42;;;;;;;16.20;5.53;;;;;;;;;;5070653;28;20402;-74
2021/03/29 07:34:09;;;;;;;17.02;5.63;;;;;;;;;;5060727;28;20725;-74
2021/03/29 07:36:51;;;;;;;16.60;5.38;;;;;;;;;;5083893;28;21271;-74
2021/03/29 07:39:36;;;;;;;15.47;5.30;;;;;;;;;;5082899;28;20922;-74
2021/03/29 07:42:21;;;;;;;15.47;6.30;;;;;;;;;;5080126;28;20457;-74
2021/03/29 07:44:57;;;;;;;13.77;5.23;;;;;;;;;;5090307;28;20405;-75
2021/03/29 07:47:42;;;;;;;13.60;5.47;;;;;;;;;;5065592;28;20413;-75
2021/03/29 07:50:10;;;;;;;14.75;5.68;;;;;;;;;;5086477;28;20970;-75
2021/03/29 07:52:40;;;;;;;13.85;5.75;;;;;;;;;;5090953;28;20393;-75
2021/03/29 07:55:23;;;;;;;13.68;4.65;;;;;;;;;;5090373;28;20397;-74
2021/03/29 07:57:53;;;;;;;16.80;5.32;;;;;;;;;;5088636;28;20488;-75
2021/03/29 08:00:25;;;;;;;16.70;5.25;;;;;;;;;;5078510;28;20455;-75
2021/03/29 08:03:01;;;;;;;16.38;5.50;;;;;;;;;;5080725;28;20411;-73
2021/03/29 08:05:41;;;;;;;14.32;5.03;;;;;;;;;;5079975;28;20407;-76
2021/03/29 08:08:30;;;;;;;14.88;5.35;;;;;;;;;;5075862;28;20417;-76
2021/03/29 08:11:00;;;;;;;17.05;5.18;;;;;;;;;;5085484;28;20394;-74
2021/03/29 08:13:41;;;;;;;16.08;5.10;;;;;;;;;;5078740;28;20853;-77
2021/03/29 08:16:09;;;;;;;12.85;5.25;;;;;;;;;;5079950;28;20395;-75
2021/03/29 08:18:54;;;;;;;13.32;4.90;;;;;;;;;;5068370;28;20409;-76
2021/03/29 08:21:39;;;;;;;14.57;5.00;;;;;;;;;;5079209;28;20416;-75
2021/03/29 08:24:05;;;;;;;12.02;5.00;;;;;;;;;;5088113;28;20406;-75
2021/03/29 08:26:38;;;;;;;14.90;4.72;;;;;;;;;;5080153;28;20397;-75
2021/03/29 08:29:36;;;;;;;13.25;5.63;;;;;;;;;;5086940;28;20436;-76
2021/03/29 08:32:14;;;;;;;12.93;4.85;;;;;;;;;;5038191;28;20404;-75
2021/03/29 08:34:56;;;;;;;13.10;4.65;;;;;;;;;;5076501;28;20397;-76
2021/03/29 08:37:37;;;;;;;15.90;5.32;;;;;;;;;;5089122;28;20406;-77
2021/03/29 08:40:11;;;;;;;14.27;4.80;;;;;;;;;;5064450;28;20409;-78
2021/03/29 08:42:37;;;;;;;16.10;4.90;;;;;;;;;;5078896;28;20531;-75
2021/03/29 08:45:08;;;;;;;17.10;5.40;;;;;;;;;;5060663;28;20376;-76
2021/03/29 08:47:36;;;;;;;17.40;5.10;;;;;;;;;;5082741;28;20495;-75
2021/03/29 08:50:03;;;;;;;14.77;5.07;;;;;;;;;;5069386;28;20907;-75
2021/03/29 08:52:59;;;;;;;14.43;4.82;;;;;;;;;;5079638;28;20400;-74
2021/03/29 08:55:26;;;;;;;13.27;4.77;;;;;;;;;;5055712;28;20384;-75
2021/03/29 08:57:54;;;;;;;16.95;4.63;;;;;;;;;;5074483;28;20374;-75
2021/03/29 09:00:23;;;;;;;15.18;4.75;;;;;;;;;;5089942;28;20848;-76
2021/03/29 09:02:49;;;;;;;11.73;4.67;;;;;;;;;;5066127;28;20448;-75
2021/03/29 09:05:16;;;;;;;14.30;4.50;;;;;;;;;;5089799;28;20374;-75
2021/03/29 09:07:48;;;;;;;12.80;4.40;;;;;;;;;;5084608;28;21040;-75
2021/03/29 09:10:34;;;;;;;16.77;4.78;;;;;;;;;;5068858;28;20741;-75
2021/03/29 09:13:01;;;;;;;13.80;4.57;;;;;;;;;;5055253;28;20406;-75
2021/03/29 09:15:28;;;;;;;13.00;4.10;;;;;;;;;;5082408;28;20399;-75
2021/03/29 09:18:05;;;;;;;15.05;4.85;;;;;;;;;;5077303;28;20902;-75
2021/03/29 09:20:31;;;;;;;15.23;4.88;;;;;;;;;;5078939;28;20397;-76
2021/03/29 09:23:02;;;;;;;14.35;4.07;;;;;;;;;;5081667;28;20406;-74
2021/03/29 09:25:37;;;;;;;15.52;4.78;;;;;;;;;;5080660;28;20393;-75
2021/03/29 09:28:16;;;;;;;12.82;4.50;;;;;;;;;;5064308;28;20522;-74
2021/03/29 09:30:42;;;;;;;11.63;4.22;;;;;;;;;;5085816;28;20393;-74
2021/03/29 09:33:09;;;;;;;13.23;4.53;;;;;;;;;;5086657;28;20386;-74
2021/03/29 09:35:36;;;;;;;16.33;4.53;;;;;;;;;;5088416;28;20455;-73
2021/03/29 09:38:02;;;;;;;12.40;4.35;;;;;;;;;;5100710;28;20381;-76
2021/03/29 09:40:35;;;;;;;14.70;4.33;;;;;;;;;;5088996;28;20408;-74
2021/03/29 09:43:01;;;;;;;13.35;4.35;;;;;;;;;;5088455;28;20418;-74
2021/03/29 09:45:28;;;;;;;13.53;4.67;;;;;;;;;;5088271;28;20382;-74
2021/03/29 09:48:08;;;;;;;11.73;4.23;;;;;;;;;;5085764;28;20397;-75
2021/03/29 09:50:42;;;;;;;12.43;3.95;;;;;;;;;;5085328;28;20414;-74
2021/03/29 09:53:09;;;;;;;13.48;4.40;;;;;;;;;;5083603;28;20397;-74
2021/03/29 09:55:49;;;;;;;11.73;4.57;;;;;;;;;;5081871;28;20388;-75
2021/03/29 09:58:30;;;;;;;13.13;4.30;;;;;;;;;;5084399;28;20935;-73
2021/03/29 10:01:01;;;;;;;15.80;4.20;;;;;;;;;;5081605;28;20390;-74
2021/03/29 10:03:27;;;;;;;13.38;4.07;;;;;;;;;;5082233;28;20408;-74
2021/03/29 10:05:55;;;;;;;18.80;4.60;;;;;;;;;;5082595;28;20394;-76
2021/03/29 10:08:31;;;;;;;12.40;4.53;;;;;;;;;;5079062;28;20454;-75
2021/03/29 10:11:07;;;;;;;12.45;4.47;;;;;;;;;;5086731;28;20385;-74
2021/03/29 10:13:36;;;;;;;12.98;4.60;;;;;;;;;;5085370;28;20558;-76
2021/03/29 10:16:22;;;;;;;12.97;4.60;;;;;;;;;;5070455;28;20390;-75
2021/03/29 10:19:01;;;;;;;14.80;4.70;;;;;;;;;;5084767;28;20420;-75
2021/03/29 10:21:27;;;;;;;11.45;4.47;;;;;;;;;;5083229;28;20443;-75
2021/03/29 10:24:09;;;;;;;13.83;4.40;;;;;;;;;;5088400;28;20386;-75
2021/03/29 10:26:37;;;;;;;13.50;4.30;;;;;;;;;;5071329;28;20718;-75
2021/03/29 10:29:04;;;;;;;10.68;4.38;;;;;;;;;;5090110;28;20445;-76
2021/03/29 10:31:31;;;;;;;17.05;4.85;;;;;;;;;;5079228;28;20699;-76
2021/03/29 10:33:58;;;;;;;12.20;5.10;;;;;;;;;;5085818;28;20494;-76
2021/03/29 10:36:25;;;;;;;12.15;4.60;;;;;;;;;;5091955;28;20417;-76
2021/03/29 10:38:51;;;;;;;16.15;5.35;;;;;;;;;;5077220;28;20398;-75
2021/03/29 10:41:17;;;;;;;12.40;4.67;;;;;;;;;;5076181;28;20489;-76
2021/03/29 10:43:43;;;;;;;13.85;4.63;;;;;;;;;;5067452;28;20389;-77
2021/03/29 10:46:09;;;;;;;11.77;4.80;;;;;;;;;;5080687;28;20372;-75
2021/03/29 10:48:35;;;;;;;13.15;4.55;;;;;;;;;;5083109;28;20875;-76
2021/03/29 10:51:03;;;;;;;16.80;5.20;;;;;;;;;;5085900;28;20466;-75
2021/03/29 10:53:29;;;;;;;16.02;4.88;;;;;;;;;;5086380;28;20420;-76
2021/03/29 10:55:55;;;;;;;14.10;5.05;;;;;;;;;;5082395;28;20400;-74
2021/03/29 10:58:21;;;;;;;14.32;5.15;;;;;;;;;;5070294;28;20420;-73
2021/03/29 11:00:47;;;;;;;14.02;5.07;;;;;;;;;;5069889;28;20397;-74
2021/03/29 11:03:13;;;;;;;14.65;4.97;;;;;;;;;;5080558;28;20399;-74
2021/03/29 11:05:39;;;;;;;11.60;4.95;;;;;;;;;;5079348;28;20424;-73
2021/03/29 11:08:05;;;;;;;17.35;5.70;;;;;;;;;;5048374;28;20446;-74
2021/03/29 11:10:31;;;;;;;13.03;5.20;;;;;;;;;;5073776;28;20455;-74
2021/03/29 11:12:57;;;;;;;12.68;5.28;;;;;;;;;;5081221;28;20390;-75
2021/03/29 11:15:23;;;;;;;15.50;5.00;;;;;;;;;;5082417;28;20471;-74
2021/03/29 11:17:49;;;;;;;12.43;4.72;;;;;;;;;;5086465;28;20477;-74
2021/03/29 11:20:15;;;;;;;15.83;5.20;;;;;;;;;;5073850;28;20998;-74
2021/03/29 11:22:41;;;;;;;11.77;4.97;;;;;;;;;;5084099;28;20394;-74
2021/03/29 11:25:07;;;;;;;12.27;4.70;;;;;;;;;;5087589;28;20739;-74
2021/03/29 11:27:33;;;;;;;14.68;5.72;;;;;;;;;;5081247;28;20386;-74
2021/03/29 11:29:59;;;;;;;15.43;5.85;;;;;;;;;;5068097;28;20415;-74
2021/03/29 11:32:26;;;;;;;13.30;4.95;;;;;;;;;;5077307;28;20409;-75
2021/03/29 11:34:52;;;;;;;11.70;5.10;;;;;;;;;;5083755;28;20402;-75
2021/03/29 11:37:18;;;;;;;15.68;5.57;;;;;;;;;;5066633;28;20462;-76
2021/03/29 11:39:44;;;;;;;11.52;4.97;;;;;;;;;;5083732;28;20437;-75
2021/03/29 11:42:10;;;;;;;11.27;4.57;;;;;;;;;;5064137;28;20387;-75
2021/03/29 11:44:36;;;;;;;13.90;4.97;;;;;;;;;;5086819;28;20390;-75
2021/03/29 11:47:02;;;;;;;13.27;4.50;;;;;;;;;;5084086;28;20478;-76
2021/03/29 11:49:28;;;;;;;14.05;5.20;;;;;;;;;;5059855;28;20416;-76
2021/03/29 11:51:54;;;;;;;15.83;5.30;;;;;;;;;;5083632;28;20769;-74
2021/03/29 11:54:20;;;;;;;14.88;5.05;;;;;;;;;;5065877;28;20395;-74
2021/03/29 11:56:46;;;;;;;12.10;4.70;;;;;;;;;;5086659;28;20419;-76
2021/03/29 11:59:13;;;;;;;12.23;4.95;;;;;;;;;;5089133;28;20383;-73
2021/03/29 12:01:49;;;;;;;13.20;5.38;;;;;;;;;;5091133;28;20384;-74
2021/03/29 12:11:58;;;;;;;14.70;5.37;;;;;;;;;;5071993;28;20786;-74
2021/03/29 12:14:26;;;;;;;14.85;5.20;;;;;;;;;;5084155;28;20390;-74
2021/03/29 12:16:53;;;;;;;10.63;4.75;;;;;;;;;;5089101;28;20401;-74
2021/03/29 12:19:19;;;;;;;11.80;4.78;;;;;;;;;;5090223;28;20458;-74
2021/03/29 12:21:50;;;;;;;11.13;4.55;;;;;;;;;;5089279;28;20860;-73
2021/03/29 12:24:19;;;;;;;10.18;4.43;;;;;;;;;;5090935;28;20397;-74
2021/03/29 12:26:47;;;;;;;11.87;5.23;;;;;;;;;;5091111;28;20373;-74
2021/03/29 12:29:20;;;;;;;13.67;4.97;;;;;;;;;;5089942;28;20413;-75
2021/03/29 12:31:48;;;;;;;13.57;4.80;;;;;;;;;;5090938;28;20374;-74
2021/03/29 12:34:15;;;;;;;10.02;4.55;;;;;;;;;;5089477;28;20404;-74
2021/03/29 12:36:48;;;;;;;9.30;4.25;;;;;;;;;;5088956;28;20395;-74
2021/03/29 12:41:42;;;;;;;14.80;5.40;;;;;;;;;;5090898;28;21027;-73
2021/03/29 12:44:14;;;;;;;11.48;5.20;;;;;;;;;;5090832;28;20374;-73
2021/03/29 12:46:41;;;;;;;13.13;5.40;;;;;;;;;;5090463;28;20465;-74
2021/03/29 12:49:15;;;;;;;13.60;5.40;;;;;;;;;;5089526;28;21065;-74
2021/03/29 12:51:43;;;;;;;11.07;5.40;;;;;;;;;;5090492;28;20378;-74
2021/03/29 12:54:11;;;;;;;11.93;5.20;;;;;;;;;;5090423;28;21128;-74
2021/03/29 12:56:37;;;;;;;12.82;5.45;;;;;;;;;;5090240;28;20385;-75
2021/03/29 12:59:04;;;;;;;12.30;5.40;;;;;;;;;;5090302;28;20415;-74
2021/03/29 13:01:30;;;;;;;13.65;5.65;;;;;;;;;;5089567;28;20898;-75
2021/03/29 13:03:58;;;;;;;11.75;5.32;;;;;;;;;;5088789;28;20386;-74
2021/03/29 13:06:35;;;;;;;14.18;5.63;;;;;;;;;;5088830;28;20378;-74
2021/03/29 13:09:05;;;;;;;14.05;5.63;;;;;;;;;;5069278;28;20438;-75
2021/03/29 13:11:34;;;;;;;15.00;5.35;;;;;;;;;;5071772;28;20487;-75
2021/03/29 13:14:01;;;;;;;13.05;5.70;;;;;;;;;;5091978;28;20501;-76
2021/03/29 13:16:28;;;;;;;14.50;5.60;;;;;;;;;;5090438;28;20573;-74
2021/03/29 13:18:54;;;;;;;11.13;5.40;;;;;;;;;;5089436;28;21081;-75
2021/03/29 13:21:20;;;;;;;12.50;5.40;;;;;;;;;;5091166;28;20378;-75
2021/03/29 13:23:47;;;;;;;12.52;5.40;;;;;;;;;;5089338;28;20393;-75
2021/03/29 13:26:20;;;;;;;15.65;5.28;;;;;;;;;;5070273;28;20396;-75
2021/03/29 13:28:47;;;;;;;15.82;5.68;;;;;;;;;;5085617;28;20424;-74
2021/03/29 13:31:14;;;;;;;13.30;5.32;;;;;;;;;;5082377;28;20376;-74
2021/03/29 13:33:40;;;;;;;11.23;5.43;;;;;;;;;;5086725;28;20473;-75
2021/03/29 13:36:07;;;;;;;16.77;5.60;;;;;;;;;;5081622;28;20494;-75
2021/03/29 13:38:34;;;;;;;12.73;5.45;;;;;;;;;;5085044;28;20707;-74
2021/03/29 13:41:03;;;;;;;10.93;4.93;;;;;;;;;;5083155;28;20939;-74
2021/03/29 13:43:29;;;;;;;11.57;4.70;;;;;;;;;;5078498;28;20406;-74
2021/03/29 13:45:55;;;;;;;12.63;5.03;;;;;;;;;;5069388;28;20383;-74
2021/03/29 13:48:21;;;;;;;12.25;5.22;;;;;;;;;;5069409;28;20425;-74
2021/03/29 13:50:47;;;;;;;14.85;5.50;;;;;;;;;;5068931;28;20368;-74
2021/03/29 13:53:14;;;;;;;13.60;5.83;;;;;;;;;;5068682;28;20461;-74
2021/03/29 13:55:40;;;;;;;12.68;5.53;;;;;;;;;;5085896;28;20819;-74
2021/03/29 13:58:06;;;;;;;14.05;6.10;;;;;;;;;;5089151;28;20472;-74
2021/03/29 14:00:32;;;;;;;11.02;5.15;;;;;;;;;;5089111;28;20374;-74
2021/03/29 14:03:00;;;;;;;11.27;5.40;;;;;;;;;;5088804;28;20413;-75
2021/03/29 14:05:30;;;;;;;10.18;5.13;;;;;;;;;;5088910;28;20449;-74
2021/03/29 14:07:57;;;;;;;13.48;5.97;;;;;;;;;;5088848;28;20489;-75
2021/03/29 14:10:24;;;;;;;13.07;5.03;;;;;;;;;;5088663;28;20366;-75
2021/03/29 14:12:50;;;;;;;14.85;5.75;;;;;;;;;;5088518;28;20821;-74
2021/03/29 14:15:16;;;;;;;15.55;5.88;;;;;;;;;;5088730;28;20377;-74
2021/03/29 14:17:42;;;;;;;11.17;5.27;;;;;;;;;;5088891;28;20384;-74
2021/03/29 14:20:09;;;;;;;12.43;4.93;;;;;;;;;;5088493;28;20441;-75
2021/03/29 14:22:35;;;;;;;13.20;5.43;;;;;;;;;;5089331;28;20362;-74
2021/03/29 14:25:01;;;;;;;13.35;5.13;;;;;;;;;;5088252;28;20389;-74
2021/03/29 14:27:27;;;;;;;10.73;4.78;;;;;;;;;;5071023;28;20463;-75
2021/03/29 14:29:53;;;;;;;10.02;4.25;;;;;;;;;;5088522;28;20370;-74
2021/03/29 14:32:22;;;;;;;11.02;4.82;;;;;;;;;;5088989;28;20363;-75
2021/03/29 14:35:04;;;;;;;10.75;4.72;;;;;;;;;;5088732;28;20413;-74
2021/03/29 14:40:13;;;;;;;11.30;4.88;;;;;;;;;;5088481;28;20425;-74
2021/03/29 14:42:52;;;;;;;12.13;4.93;;;;;;;;;;5088675;28;20386;-75
2021/03/29 14:45:18;;;;;;;12.40;5.18;;;;;;;;;;5088148;28;20385;-74
2021/03/29 14:47:44;;;;;;;13.13;4.72;;;;;;;;;;5088597;28;20409;-74
2021/03/29 14:50:11;;;;;;;12.55;5.03;;;;;;;;;;5087834;28;20397;-74
2021/03/29 14:52:38;;;;;;;10.90;4.80;;;;;;;;;;5088408;28;20827;-74
2021/03/29 14:55:06;;;;;;;11.95;5.00;;;;;;;;;;5088325;28;20374;-74